Terminal Aerodrome Forecast
Issued by NWS Cleveland, OH

Home | Current Version | Previous Version | Text Only | Print | Product List | Glossary On
Versions: 1 2 3 4 5 6 7 8 9 10 11 12 13 14 15 16 17
000
FTUS41 KCLE 021230 AAA
TAFYNG
TAF AMD
KYNG 021230Z 0213/0312 22004KT 3SM BR BKN150
      TEMPO 0214/0215 6SM BR
     FM021500 27008KT P6SM SCT050=

USA.gov is the U.S. government's official web portal to all federal, state and local government web resources and services.